Terminal Aerodrome Forecast
Issued by NWS

Home | Current Version | Previous Version | Text Only | Print | Product List | Glossary On
Versions: 1 2 3 4 5 6 7 8 9 10 11 12 13 14 15 16 17
000
FTUS43 KMQT 251912 AAA
TAFIWD
TAF AMD
KIWD 251912Z 2519/2618 34005KT P6SM VCSH OVC006
      TEMPO 2519/2521 OVC004
     FM252100 01005KT 6SM -SHRA BR OVC008
     FM260200 05003KT 3SM -SHRA BR OVC003
     FM261300 VRB03KT 4SM -SHRA BR OVC003
     FM261700 28003KT 6SM -SHRA OVC003=

USA.gov is the U.S. government's official web portal to all federal, state and local government web resources and services.